Capitol Logistics 7309

Operating for MZN



KSCK
Stockton Metropolitan Airport
Stockton, California
KRFD
Chicago/Rockford International Airport
Rockford, Illinois

Activity Log

Date Flight Route Aircraft Duration
No Flights Yet

Route Details

Aircraft Information
Primary: Boeing 767-300BDSF
Backup: Boeing 757-200SF
Route Data
Distance: 1492nm
Duration: 3h 25m
Recm'd Route: LIN J84 MVA TTOES Q126 GAROT DTA J84 OBH J144 DSM J10 IOW PLL
Origin Wx: KSCK 141955Z VRB03KT 10SM CLR 19/03 A2993 RMK AO2 SLP136 T01890028
Dest. Wx: KRFD 141954Z 29014KT 10SM OVC041 09/M02 A3010 RMK AO2 SLP196 T00891022
Notes: